地図

経路データ

SID SEASON NUMBER BASIN SUBBASIN NAME ISO_TIME NATURE LAT LON WMO_WIND WMO_PRES WMO_AGENCY TRACK_TYPE DIST2LAND LANDFALL IFLAG USA_AGENCY USA_ATCF_ID USA_LAT USA_LON USA_RECORD USA_STATUS USA_WIND USA_PRES USA_SSHS USA_R34_NE USA_R34_SE USA_R34_SW USA_R34_NW USA_R50_NE USA_R50_SE USA_R50_SW USA_R50_NW USA_R64_NE USA_R64_SE USA_R64_SW USA_R64_NW USA_POCI USA_ROCI USA_RMW USA_EYE TOKYO_LAT TOKYO_LON TOKYO_GRADE TOKYO_WIND TOKYO_PRES TOKYO_R50_DIR TOKYO_R50_LONG TOKYO_R50_SHORT TOKYO_R30_DIR TOKYO_R30_LONG TOKYO_R30_SHORT TOKYO_LAND CMA_LAT CMA_LON CMA_CAT CMA_WIND CMA_PRES HKO_LAT HKO_LON HKO_CAT HKO_WIND HKO_PRES NEWDELHI_LAT NEWDELHI_LON NEWDELHI_GRADE NEWDELHI_WIND NEWDELHI_PRES NEWDELHI_CI NEWDELHI_DP NEWDELHI_POCI REUNION_LAT REUNION_LON REUNION_TYPE REUNION_WIND REUNION_PRES REUNION_TNUM REUNION_CI REUNION_RMW REUNION_R34_NE REUNION_R34_SE REUNION_R34_SW REUNION_R34_NW REUNION_R50_NE REUNION_R50_SE REUNION_R50_SW REUNION_R50_NW REUNION_R64_NE REUNION_R64_SE REUNION_R64_SW REUNION_R64_NW BOM_LAT BOM_LON BOM_TYPE BOM_WIND BOM_PRES BOM_TNUM BOM_CI BOM_RMW BOM_R34_NE BOM_R34_SE BOM_R34_SW BOM_R34_NW BOM_R50_NE BOM_R50_SE BOM_R50_SW BOM_R50_NW BOM_R64_NE BOM_R64_SE BOM_R64_SW BOM_R64_NW BOM_ROCI BOM_POCI BOM_EYE BOM_POS_METHOD BOM_PRES_METHOD NADI_LAT NADI_LON NADI_CAT NADI_WIND NADI_PRES WELLINGTON_LAT WELLINGTON_LON WELLINGTON_WIND WELLINGTON_PRES DS824_LAT DS824_LON DS824_STAGE DS824_WIND DS824_PRES TD9636_LAT TD9636_LON TD9636_STAGE TD9636_WIND TD9636_PRES TD9635_LAT TD9635_LON TD9635_WIND TD9635_PRES TD9635_ROCI NEUMANN_LAT NEUMANN_LON NEUMANN_CLASS NEUMANN_WIND NEUMANN_PRES MLC_LAT MLC_LON MLC_CLASS MLC_WIND MLC_PRES USA_GUST BOM_GUST BOM_GUST_PER REUNION_GUST REUNION_GUST_PER USA_SEAHGT USA_SEARAD_NE USA_SEARAD_SE USA_SEARAD_SW USA_SEARAD_NW STORM_SPEED STORM_DIR
2000249N15258 2000 79 EP MM LANE 2000-09-05 00:00:00 TS 15.4000 -102.200 25 1007 hurdat_epa main 242 242 O_____________ hurdat_epa EP142000 15.4000 -102.200 TD 25 1007 -1 14 283
2000249N15258 2000 79 EP MM LANE 2000-09-05 03:00:00 TS 15.5578 -102.882 main 265 265 P_____________ EP142000 15.5578 -102.882 TD 27 1007 -1 14 283
2000249N15258 2000 79 EP MM LANE 2000-09-05 06:00:00 TS 15.7000 -103.600 30 1007 hurdat_epa main 278 278 O_____________ hurdat_epa EP142000 15.7000 -103.600 TD 30 1007 -1 15 280
2000249N15258 2000 79 EP MM LANE 2000-09-05 09:00:00 TS 15.8150 -104.365 main 295 295 P_____________ EP142000 15.8150 -104.365 TD 32 1005 -1 15 278
2000249N15258 2000 79 EP MM LANE 2000-09-05 12:00:00 TS 15.9000 -105.100 35 1004 hurdat_epa main 317 317 O_____________ hurdat_epa EP142000 15.9000 -105.100 TS 35 1004 0 13 277
2000249N15258 2000 79 EP MM LANE 2000-09-05 15:00:00 TS 15.9798 -105.752 main 354 354 P_____________ EP142000 15.9798 -105.752 TS 37 1003 0 12 275
2000249N15258 2000 79 EP MM LANE 2000-09-05 18:00:00 TS 16.0000 -106.300 40 1002 hurdat_epa main 391 391 O_____________ hurdat_epa EP142000 16.0000 -106.300 TS 40 1002 0 9 267
2000249N15258 2000 79 EP MM LANE 2000-09-05 21:00:00 TS 15.9372 -106.730 main 420 420 P_____________ EP142000 15.9372 -106.730 TS 42 1001 0 8 255
2000249N15258 2000 79 EP MM LANE 2000-09-06 00:00:00 TS 15.8000 -107.100 45 1000 hurdat_epa main 451 451 O_____________ hurdat_epa EP142000 15.8000 -107.100 TS 45 1000 0 8 248
2000249N15258 2000 79 EP MM LANE 2000-09-06 03:00:00 TS 15.6301 -107.530 main 494 494 P_____________ EP142000 15.6301 -107.530 TS 45 1000 0 9 243
2000249N15258 2000 79 EP MM LANE 2000-09-06 06:00:00 TS 15.4000 -107.900 45 1000 hurdat_epa main 537 537 O_____________ hurdat_epa EP142000 15.4000 -107.900 TS 45 1000 0 8 229
2000249N15258 2000 79 EP MM LANE 2000-09-06 09:00:00 TS 15.1074 -108.145 main 577 577 P_____________ EP142000 15.1074 -108.145 TS 47 998 0 7 213
2000249N15258 2000 79 EP MM LANE 2000-09-06 12:00:00 TS 14.8000 -108.300 50 997 hurdat_epa main 617 617 O_____________ hurdat_epa EP142000 14.8000 -108.300 TS 50 997 0 6 207
2000249N15258 2000 79 EP MM LANE 2000-09-06 15:00:00 TS 14.5425 -108.445 main 650 650 P_____________ EP142000 14.5425 -108.445 TS 50 997 0 5 201
2000249N15258 2000 79 EP MM LANE 2000-09-06 18:00:00 TS 14.3000 -108.500 50 998 hurdat_epa main 675 675 O_____________ hurdat_epa EP142000 14.3000 -108.500 TS 50 998 0 5 177
2000249N15258 2000 79 EP MM LANE 2000-09-06 21:00:00 TS 14.0350 -108.437 main 696 696 P_____________ EP142000 14.0350 -108.437 TS 47 999 0 5 159
2000249N15258 2000 79 EP MM LANE 2000-09-07 00:00:00 TS 13.8000 -108.300 45 1000 hurdat_epa main 710 710 O_____________ hurdat_epa EP142000 13.8000 -108.300 TS 45 1000 0 5 148
2000249N15258 2000 79 EP MM LANE 2000-09-07 03:00:00 TS 13.5825 -108.150 main 718 718 P_____________ EP142000 13.5825 -108.150 TS 42 1000 0 4 136
2000249N15258 2000 79 EP MM LANE 2000-09-07 06:00:00 TS 13.5000 -108.000 40 1000 hurdat_epa main 721 705 O_____________ hurdat_epa EP142000 13.5000 -108.000 TS 40 1000 0 3 79
2000249N15258 2000 79 EP MM LANE 2000-09-07 09:00:00 TS 13.6325 -107.885 main 705 673 P_____________ EP142000 13.6325 -107.885 TS 40 1000 0 4 26
2000249N15258 2000 79 EP MM LANE 2000-09-07 12:00:00 TS 13.9000 -107.800 40 1000 hurdat_epa main 673 639 O_____________ hurdat_epa EP142000 13.9000 -107.800 TS 40 1000 0 6 17
2000249N15258 2000 79 EP MM LANE 2000-09-07 15:00:00 TS 14.1850 -107.713 main 639 609 P_____________ EP142000 14.1850 -107.713 TS 42 999 0 6 9
2000249N15258 2000 79 EP MM LANE 2000-09-07 18:00:00 TS 14.5000 -107.700 45 999 hurdat_epa main 609 586 O_____________ hurdat_epa EP142000 14.5000 -107.700 TS 45 999 0 6 350
2000249N15258 2000 79 EP MM LANE 2000-09-07 21:00:00 TS 14.8150 -107.820 main 586 571 P_____________ EP142000 14.8150 -107.820 TS 45 998 0 7 334
2000249N15258 2000 79 EP MM LANE 2000-09-08 00:00:00 TS 15.1000 -108.000 45 998 hurdat_epa main 571 559 O_____________ hurdat_epa EP142000 15.1000 -108.000 TS 45 998 0 6 327
2000249N15258 2000 79 EP MM LANE 2000-09-08 03:00:00 TS 15.3150 -108.150 main 566 556 P_____________ EP142000 15.3150 -108.150 TS 47 996 0 5 324
2000249N15258 2000 79 EP MM LANE 2000-09-08 06:00:00 TS 15.5000 -108.300 50 994 hurdat_epa main 556 547 O_____________ hurdat_epa EP142000 15.5000 -108.300 TS 50 994 0 5 323
2000249N15258 2000 79 EP MM LANE 2000-09-08 09:00:00 TS 15.6925 -108.450 main 554 546 P_____________ EP142000 15.6925 -108.450 TS 52 992 0 5 324
2000249N15258 2000 79 EP MM LANE 2000-09-08 12:00:00 TS 15.9000 -108.600 55 991 hurdat_epa main 546 538 O_____________ hurdat_epa EP142000 15.9000 -108.600 TS 55 991 0 5 328
2000249N15258 2000 79 EP MM LANE 2000-09-08 15:00:00 TS 16.1275 -108.735 main 538 530 P_____________ EP142000 16.1275 -108.735 TS 57 989 0 6 330
2000249N15258 2000 79 EP MM LANE 2000-09-08 18:00:00 TS 16.4000 -108.900 60 987 hurdat_epa main 530 522 O_____________ hurdat_epa EP142000 16.4000 -108.900 TS 60 987 0 7 328
2000249N15258 2000 79 EP MM LANE 2000-09-08 21:00:00 TS 16.7275 -109.128 main 523 517 P_____________ EP142000 16.7275 -109.128 TS 62 985 0 9 326
2000249N15258 2000 79 EP MM LANE 2000-09-09 00:00:00 TS 17.1000 -109.400 65 983 hurdat_epa main 521 515 O_____________ hurdat_epa EP142000 17.1000 -109.400 HU 65 983 1 9 325
2000249N15258 2000 79 EP MM LANE 2000-09-09 03:00:00 TS 17.5000 -109.693 main 523 517 P_____________ EP142000 17.5000 -109.693 HU 67 980 1 10 324
2000249N15258 2000 79 EP MM LANE 2000-09-09 06:00:00 TS 17.9000 -110.000 70 978 hurdat_epa main 528 523 O_____________ hurdat_epa EP142000 17.9000 -110.000 HU 70 978 1 9 323
2000249N15258 2000 79 EP MM LANE 2000-09-09 09:00:00 TS 18.2424 -110.285 main 526 484 P_____________ EP142000 18.2424 -110.285 HU 72 976 1 9 321
2000249N15258 2000 79 EP MM LANE 2000-09-09 12:00:00 TS 18.6000 -110.600 75 974 hurdat_epa main 484 446 O_____________ hurdat_epa EP142000 18.6000 -110.600 HU 75 974 1 10 322
2000249N15258 2000 79 EP MM LANE 2000-09-09 15:00:00 TS 19.0498 -110.963 main 448 403 P_____________ EP142000 19.0498 -110.963 HU 77 972 1 12 320
2000249N15258 2000 79 EP MM LANE 2000-09-09 18:00:00 TS 19.5000 -111.400 80 970 hurdat_epa main 406 388 O_____________ hurdat_epa EP142000 19.5000 -111.400 HU 80 970 1 13 313
2000249N15258 2000 79 EP MM LANE 2000-09-09 21:00:00 TS 19.8951 -111.935 main 388 384 P_____________ EP142000 19.8951 -111.935 HU 82 969 1 13 304
2000249N15258 2000 79 EP MM LANE 2000-09-10 00:00:00 TS 20.2000 -112.500 85 968 hurdat_epa main 397 395 O_____________ hurdat_epa EP142000 20.2000 -112.500 HU 85 968 2 11 295
2000249N15258 2000 79 EP MM LANE 2000-09-10 03:00:00 TS 20.3723 -113.015 main 417 417 P_____________ EP142000 20.3723 -113.015 HU 85 967 2 10 288
2000249N15258 2000 79 EP MM LANE 2000-09-10 06:00:00 TS 20.5000 -113.500 85 967 hurdat_epa main 450 450 O_____________ hurdat_epa EP142000 20.5000 -113.500 HU 85 967 2 10 290
2000249N15258 2000 79 EP MM LANE 2000-09-10 09:00:00 TS 20.6924 -113.973 main 480 476 P_____________ EP142000 20.6924 -113.973 HU 85 967 2 9 295
2000249N15258 2000 79 EP MM LANE 2000-09-10 12:00:00 TS 20.9000 -114.400 85 968 hurdat_epa main 482 479 O_____________ hurdat_epa EP142000 20.9000 -114.400 HU 85 968 2 8 299
2000249N15258 2000 79 EP MM LANE 2000-09-10 15:00:00 TS 21.0998 -114.765 main 488 482 P_____________ EP142000 21.0998 -114.765 HU 85 968 2 8 302
2000249N15258 2000 79 EP MM LANE 2000-09-10 18:00:00 TS 21.3000 -115.100 85 969 hurdat_epa main 488 486 O_____________ hurdat_epa EP142000 21.3000 -115.100 HU 85 969 2 7 303
2000249N15258 2000 79 EP MM LANE 2000-09-10 21:00:00 TS 21.4922 -115.420 main 491 490 P_____________ EP142000 21.4922 -115.420 HU 82 970 1 8 302
2000249N15258 2000 79 EP MM LANE 2000-09-11 00:00:00 TS 21.7000 -115.800 80 971 hurdat_epa main 505 505 O_____________ hurdat_epa EP142000 21.7000 -115.800 HU 80 971 1 10 299
2000249N15258 2000 79 EP MM LANE 2000-09-11 03:00:00 TS 21.9502 -116.327 main 522 522 P_____________ EP142000 21.9502 -116.327 HU 77 973 1 11 296
2000249N15258 2000 79 EP MM LANE 2000-09-11 06:00:00 TS 22.2000 -116.900 75 975 hurdat_epa main 560 560 O_____________ hurdat_epa EP142000 22.2000 -116.900 HU 75 975 1 11 295
2000249N15258 2000 79 EP MM LANE 2000-09-11 09:00:00 TS 22.4072 -117.400 main 593 593 P_____________ EP142000 22.4072 -117.400 HU 70 979 1 10 293
2000249N15258 2000 79 EP MM LANE 2000-09-11 12:00:00 TS 22.6000 -117.900 65 983 hurdat_epa main 623 619 O_____________ hurdat_epa EP142000 22.6000 -117.900 HU 65 983 1 10 292
2000249N15258 2000 79 EP MM LANE 2000-09-11 15:00:00 TS 22.7925 -118.450 main 641 639 P_____________ EP142000 22.7925 -118.450 HU 62 985 0 11 292
2000249N15258 2000 79 EP MM LANE 2000-09-11 18:00:00 TS 23.0000 -119.000 60 987 hurdat_epa main 658 658 O_____________ hurdat_epa EP142000 23.0000 -119.000 TS 60 987 0 11 294
2000249N15258 2000 79 EP MM LANE 2000-09-11 21:00:00 TS 23.2273 -119.515 main 675 673 P_____________ EP142000 23.2273 -119.515 TS 57 989 0 10 299
2000249N15258 2000 79 EP MM LANE 2000-09-12 00:00:00 TS 23.5000 -120.000 55 991 hurdat_epa main 686 685 O_____________ hurdat_epa EP142000 23.5000 -120.000 TS 55 991 0 11 305
2000249N15258 2000 79 EP MM LANE 2000-09-12 03:00:00 TS 23.8274 -120.465 main 701 694 P_____________ EP142000 23.8274 -120.465 TS 52 992 0 11 310
2000249N15258 2000 79 EP MM LANE 2000-09-12 06:00:00 TS 24.2000 -120.900 50 994 hurdat_epa main 707 707 O_____________ hurdat_epa EP142000 24.2000 -120.900 TS 50 994 0 11 315
2000249N15258 2000 79 EP MM LANE 2000-09-12 09:00:00 TS 24.5924 -121.315 main 717 717 P_____________ EP142000 24.5924 -121.315 TS 47 995 0 11 318
2000249N15258 2000 79 EP MM LANE 2000-09-12 12:00:00 TS 25.0000 -121.700 45 996 hurdat_epa main 731 731 O_____________ hurdat_epa EP142000 25.0000 -121.700 TS 45 996 0 11 320
2000249N15258 2000 79 EP MM LANE 2000-09-12 15:00:00 TS 25.3924 -122.065 main 750 746 P_____________ EP142000 25.3924 -122.065 TS 45 997 0 10 322
2000249N15258 2000 79 EP MM LANE 2000-09-12 18:00:00 TS 25.8000 -122.400 45 998 hurdat_epa main 763 763 O_____________ hurdat_epa EP142000 25.8000 -122.400 TS 45 998 0 10 324
2000249N15258 2000 79 EP MM LANE 2000-09-12 21:00:00 TS 26.2276 -122.745 main 780 780 P_____________ EP142000 26.2276 -122.745 TS 42 999 0 11 329
2000249N15258 2000 79 EP MM LANE 2000-09-13 00:00:00 TS 26.7000 -123.000 40 1000 hurdat_epa main 789 773 O_____________ hurdat_epa EP142000 26.7000 -123.000 TS 40 1000 0 10 342
2000249N15258 2000 79 EP MM LANE 2000-09-13 03:00:00 TS 27.2199 -123.110 main 773 747 P_____________ EP142000 27.2199 -123.110 TS 37 1001 0 11 355
2000249N15258 2000 79 EP MM LANE 2000-09-13 06:00:00 TS 27.8000 -123.100 35 1002 hurdat_epa main 747 703 O_____________ hurdat_epa EP142000 27.8000 -123.100 TS 35 1002 0 12 4
2000249N15258 2000 79 EP MM LANE 2000-09-13 09:00:00 TS 28.4125 -123.015 main 703 633 P_____________ EP142000 28.4125 -123.015 TS 32 1003 -1 13 8
2000249N15258 2000 79 EP MM LANE 2000-09-13 12:00:00 TS 29.1000 -122.900 30 1004 hurdat_epa main 633 560 O_____________ hurdat_epa EP142000 29.1000 -122.900 TD 30 1004 -1 15 5
2000249N15258 2000 79 EP MM LANE 2000-09-13 15:00:00 TS 29.8849 -122.879 main 550 465 P_____________ EP142000 29.8849 -122.879 TD 27 1004 -1 16 3
2000249N15258 2000 79 EP MM LANE 2000-09-13 18:00:00 TS 30.7000 -122.800 25 1005 hurdat_epa main 465 387 O_____________ hurdat_epa EP142000 30.7000 -122.800 TD 25 1005 -1 16 10
2000249N15258 2000 79 EP MM LANE 2000-09-13 21:00:00 TS 31.4678 -122.554 main 377 291 P_____________ EP142000 31.4678 -122.554 TD 25 1005 -1 16 19
2000249N15258 2000 79 EP MM LANE 2000-09-14 00:00:00 TS 32.2000 -122.200 25 1006 hurdat_epa main 291 O_____________ hurdat_epa EP142000 32.2000 -122.200 TD 25 1006 -1 16 22

IBTrACS Databaseについて

本データベースは、米国NOAAが公開する1842年以降の世界の熱帯低気圧のベストトラックデータアーカイブInternational Best Track Archive for Climate Stewardship (IBTrACS)を、ウェブで閲覧しやすい形式に変換したものです。

最終更新日:2021-10-25